Adamovichi, Belarus

2:54 AM +03 on March 24, 2017 (GMT +0300)
Unnamed Road | | Change Station

Elev 583 ft 54.43 °N, 27.33 °E | Updated 23 minutes ago

Overcast
Overcast
33.1 °F
Feels Like 33 °F
N
0.6
Wind Variable Wind from East
Gusts 1.9 mph

Today
High -- | Low -- °F
--% Chance of Precip.
Yesterday
High -- | Low -- °F
Precip. -- in
Pressure 30.18 in
Visibility -9999.0 miles
Clouds
Windchill 33 °F
Dew Point 32 °F
Humidity 95%
Rainfall Not available.
Snow Depth Not available.
7:04 AM 7:33 PM
Waning Crescent, 19% visible
METAR UMMS 232330Z 00000MPS CAVOK 02/00 Q1022 R31/CLRD// NOSIG
Pressure 30.18 in
Visibility -9999.0 miles
Clouds
Windchill 33 °F
Dew Point 32 °F
Humidity 95%
Rainfall Not available.
Snow Depth Not available.
7:04 AM 7:33 PM
Waning Crescent, 19% visible
METAR UMMS 232330Z 00000MPS CAVOK 02/00 Q1022 R31/CLRD// NOSIG

Get Severe Weather Alerts

Thanks for signing up!

Be on the lookout for a verification email in your inbox.

You'll start receiving the daily forecast at 8 AM.

×

10-Day Weather Forecast

×

Almanac

Astronomy

Mar. 24, 2017 Rise Set
Actual Time
Civil Twilight
Nautical Twilight
Astronomical Twilight
Moon
Length of Visible Light
Length of Day
Tomorrow will be .
, % of the Moon is Illuminated

Today's Extremes

Country Highs Country Lows

Community

WunderPhotos

Upload Photos

1,962,540 photos uploaded!

WunderBlog® & News

Nearby

Air Quality

  Air Quality AQ Index Pollutant
Not available.

Snow Depth

Station Depth Elevation

Earthquake Activity

City Distance Mag. Time & Date
Minimum magnitude displayed is 2.5.

Earthquake Activity

City Distance Mag. Time & Date
Minimum magnitude displayed is 2.5.

Coastal Water Temperatures

Place Temperature

Stations

Nearby Weather Stations

Station Location Temp. Windchill Dew Point Humidity Wind Precip. Elev Updated Type